createdAt,value
2018-03-07T00:00:49.698Z,97384.14
2018-03-07T00:03:15.631Z,97384.16
2018-03-07T00:05:41.542Z,97383.33
2018-03-07T00:08:07.463Z,97384.55
2018-03-07T00:10:33.382Z,97379.55
2018-03-07T00:12:59.308Z,97382.05
2018-03-07T00:15:25.226Z,97380.83
2018-03-07T00:17:51.152Z,97381.98
2018-03-07T00:20:17.071Z,97377.42
2018-03-07T00:22:42.987Z,97382.38
2018-03-07T00:25:08.941Z,97374.84
2018-03-07T00:27:34.859Z,97369.41
2018-03-07T00:30:00.774Z,97379.05
2018-03-07T00:32:26.703Z,97377.36
2018-03-07T00:34:52.626Z,97377.89
2018-03-07T00:37:18.544Z,97375.76
2018-03-07T00:39:44.465Z,97377.47
2018-03-07T00:42:10.405Z,97381.64
2018-03-07T00:44:36.323Z,97379.54
2018-03-07T00:47:02.251Z,97377.06
2018-03-07T00:49:28.182Z,97377.48
2018-03-07T00:51:54.102Z,97375.32
2018-03-07T00:54:20.025Z,97375.78
2018-03-07T00:56:45.938Z,97375.73
2018-03-07T00:59:11.862Z,97374.08
2018-03-07T01:01:37.786Z,97372.80
2018-03-07T01:04:03.719Z,97374.39
2018-03-07T01:06:29.636Z,97374.38
2018-03-07T01:08:55.550Z,97372.33
2018-03-07T01:11:21.466Z,97367.43
2018-03-07T01:13:47.377Z,97365.34
2018-03-07T01:16:13.288Z,97364.95
2018-03-07T01:18:39.203Z,97362.00
2018-03-07T01:21:05.123Z,97361.57
2018-03-07T01:23:31.061Z,97371.27
2018-03-07T01:25:56.987Z,97367.14
2018-03-07T01:28:22.975Z,97365.34
2018-03-07T01:30:48.891Z,97364.06
2018-03-07T01:33:14.833Z,97367.22
2018-03-07T01:35:40.751Z,97364.98
2018-03-07T01:38:06.679Z,97363.36
2018-03-07T01:40:32.595Z,97362.45
2018-03-07T01:42:58.541Z,97370.73
2018-03-07T01:45:24.474Z,97367.82
2018-03-07T01:47:50.394Z,97362.78
2018-03-07T01:50:16.315Z,97362.44
2018-03-07T01:52:42.272Z,97361.59
2018-03-07T01:55:08.207Z,97360.75
2018-03-07T01:57:34.126Z,97357.00
2018-03-07T02:00:00.047Z,97361.91
2018-03-07T02:02:25.973Z,97370.94
2018-03-07T02:04:51.893Z,97364.98
2018-03-07T02:07:17.848Z,97368.02
2018-03-07T02:09:43.771Z,97368.06
2018-03-07T02:12:09.690Z,97361.90
2018-03-07T02:14:35.616Z,97364.73
2018-03-07T02:17:01.543Z,97362.95
2018-03-07T02:19:27.463Z,97373.91
2018-03-07T02:21:53.388Z,97367.35
2018-03-07T02:24:19.304Z,97368.64
2018-03-07T02:26:45.219Z,97374.33
2018-03-07T02:29:11.150Z,97369.77
2018-03-07T02:31:37.061Z,97372.70
2018-03-07T02:34:02.987Z,97375.95
2018-03-07T02:36:28.905Z,97372.02
2018-03-07T02:38:54.843Z,97368.23
2018-03-07T02:41:20.766Z,97372.36
2018-03-07T02:43:46.709Z,97371.83
2018-03-07T02:46:12.644Z,97373.91
2018-03-07T02:48:38.588Z,97373.53
2018-03-07T02:51:04.509Z,97375.53
2018-03-07T02:53:30.431Z,97374.39
2018-03-07T02:55:56.377Z,97378.50
2018-03-07T02:58:22.308Z,97372.31
2018-03-07T03:00:48.227Z,97374.83
2018-03-07T03:03:14.155Z,97374.31
2018-03-07T03:05:40.095Z,97370.55
2018-03-07T03:08:06.031Z,97362.77
2018-03-07T03:10:31.962Z,97376.34
2018-03-07T03:12:57.903Z,97378.11
2018-03-07T03:15:23.830Z,97381.42
2018-03-07T03:17:49.771Z,97387.20
2018-03-07T03:20:15.688Z,97380.58
2018-03-07T03:22:41.615Z,97390.94
2018-03-07T03:25:07.532Z,97385.88
2018-03-07T03:27:33.467Z,97394.29
2018-03-07T03:29:59.386Z,97382.22
2018-03-07T03:32:25.340Z,97386.75
2018-03-07T03:34:51.260Z,97380.52
2018-03-07T03:37:17.215Z,97385.50
2018-03-07T03:39:43.138Z,97366.83
2018-03-07T03:42:09.079Z,97387.16
2018-03-07T03:44:34.995Z,97379.30
2018-03-07T03:47:00.930Z,97380.45
2018-03-07T03:49:26.845Z,97380.41
2018-03-07T03:51:52.792Z,97389.52
2018-03-07T03:54:18.720Z,97386.72
2018-03-07T03:56:44.646Z,97391.27
2018-03-07T03:59:10.556Z,97393.38
2018-03-07T04:01:36.487Z,97392.16
2018-03-07T04:04:02.413Z,97385.63
2018-03-07T04:06:28.340Z,97392.27
2018-03-07T04:08:54.283Z,97395.94
2018-03-07T04:11:20.231Z,97395.88
2018-03-07T04:13:46.155Z,97401.30
2018-03-07T04:16:12.102Z,97399.17
2018-03-07T04:18:38.031Z,97399.11
2018-03-07T04:21:03.967Z,97404.91
2018-03-07T04:23:29.886Z,97401.23
2018-03-07T04:25:55.834Z,97401.77
2018-03-07T04:28:21.770Z,97400.85
2018-03-07T04:30:47.781Z,97405.28
2018-03-07T04:33:13.711Z,97407.74
2018-03-07T04:35:39.649Z,97406.20
2018-03-07T04:38:05.598Z,97406.23
2018-03-07T04:40:31.527Z,97404.98
2018-03-07T04:42:57.461Z,97406.38
2018-03-07T04:45:23.383Z,97400.08
2018-03-07T04:47:49.318Z,97396.80
2018-03-07T04:50:15.251Z,97396.83
2018-03-07T04:52:41.272Z,97402.51
2018-03-07T04:55:07.206Z,97401.24
2018-03-07T04:57:33.143Z,97397.88
2018-03-07T04:59:59.063Z,97402.78
2018-03-07T05:02:24.999Z,97399.97
2018-03-07T05:04:50.925Z,97398.36
2018-03-07T05:07:16.880Z,97403.80
2018-03-07T05:09:42.809Z,97402.61
2018-03-07T05:12:08.758Z,97407.14
2018-03-07T05:14:34.691Z,97409.89
2018-03-07T05:17:00.619Z,97410.74
2018-03-07T05:19:26.542Z,97405.10
2018-03-07T05:21:52.486Z,97408.70
2018-03-07T05:24:18.418Z,97411.58
2018-03-07T05:26:44.366Z,97407.47
2018-03-07T05:29:10.299Z,97413.63
2018-03-07T05:31:36.227Z,97416.92
2018-03-07T05:34:02.161Z,97413.68
2018-03-07T05:36:28.083Z,97414.30
2018-03-07T05:38:54.011Z,97415.06
2018-03-07T05:41:19.931Z,97417.59
2018-03-07T05:43:45.854Z,97421.28
2018-03-07T05:46:11.770Z,97424.97
2018-03-07T05:48:37.709Z,97419.17
2018-03-07T05:51:03.680Z,97401.56
2018-03-07T05:53:29.631Z,97422.09
2018-03-07T05:55:55.555Z,97422.47
2018-03-07T05:58:21.481Z,97432.80
2018-03-07T06:00:47.406Z,97430.18
2018-03-07T06:03:13.333Z,97432.30
2018-03-07T06:05:39.268Z,97434.48
2018-03-07T06:08:05.202Z,97437.50
2018-03-07T06:10:31.127Z,97439.12
2018-03-07T06:12:57.057Z,97446.61
2018-03-07T06:15:23.005Z,97446.14
2018-03-07T06:17:48.923Z,97446.36
2018-03-07T06:20:14.847Z,97454.63
2018-03-07T06:22:40.765Z,97454.48
2018-03-07T06:25:06.687Z,97457.20
2018-03-07T06:27:32.605Z,97464.69
2018-03-07T06:29:58.526Z,97463.47
2018-03-07T06:32:24.448Z,97471.16
2018-03-07T06:34:50.370Z,97472.45
2018-03-07T06:37:16.297Z,97479.98
2018-03-07T06:39:42.225Z,97479.55
2018-03-07T06:42:08.159Z,97482.34
2018-03-07T06:44:34.082Z,97483.42
2018-03-07T06:47:00.037Z,97482.92
2018-03-07T06:49:25.963Z,97491.15
2018-03-07T06:51:51.885Z,97492.95
2018-03-07T06:54:17.821Z,97496.33
2018-03-07T06:56:43.754Z,97503.17
2018-03-07T06:59:09.713Z,97503.09
2018-03-07T07:01:35.634Z,97506.16
2018-03-07T07:04:01.557Z,97514.22
2018-03-07T07:06:27.478Z,97513.70
2018-03-07T07:08:53.419Z,97522.44
2018-03-07T07:11:19.337Z,97519.45
2018-03-07T07:13:45.297Z,97522.44
2018-03-07T07:16:11.227Z,97522.45
2018-03-07T07:18:37.151Z,97526.13
2018-03-07T07:21:03.145Z,97534.81
2018-03-07T07:23:29.079Z,97536.07
2018-03-07T07:25:55.006Z,97529.48
2018-03-07T07:28:20.940Z,97539.81
2018-03-07T07:30:46.857Z,97547.47
2018-03-07T07:33:12.785Z,97545.34
2018-03-07T07:35:38.698Z,97551.14
2018-03-07T07:38:04.624Z,97554.98
2018-03-07T07:40:30.555Z,97558.59
2018-03-07T07:42:56.474Z,97562.05
2018-03-07T07:45:22.393Z,97560.11
2018-03-07T07:47:48.326Z,97564.25
2018-03-07T07:50:14.256Z,97574.24
2018-03-07T07:52:40.185Z,97576.20
2018-03-07T07:55:06.117Z,97581.16
2018-03-07T07:57:32.044Z,97585.05
2018-03-07T07:59:57.965Z,97582.24
2018-03-07T08:02:23.885Z,97580.53
2018-03-07T08:04:49.808Z,97586.99
2018-03-07T08:07:15.741Z,97582.63
2018-03-07T08:09:41.659Z,97585.50
2018-03-07T08:12:07.634Z,97588.32
2018-03-07T08:14:33.546Z,97594.74
2018-03-07T08:16:59.548Z,97592.84
2018-03-07T08:19:25.471Z,97598.05
2018-03-07T08:21:51.390Z,97593.86
2018-03-07T08:24:17.336Z,97595.05
2018-03-07T08:26:43.259Z,97598.09
2018-03-07T08:29:09.174Z,97596.58
2018-03-07T08:31:35.092Z,97600.68
2018-03-07T08:34:01.014Z,97600.19
2018-03-07T08:36:26.938Z,97613.63
2018-03-07T08:38:52.883Z,97601.06
2018-03-07T08:41:18.814Z,97612.27
2018-03-07T08:43:44.740Z,97617.20
2018-03-07T08:46:10.662Z,97613.19
2018-03-07T08:48:36.580Z,97618.65
2018-03-07T08:51:02.508Z,97615.83
2018-03-07T08:53:28.456Z,97618.33
2018-03-07T08:55:54.384Z,97624.83
2018-03-07T08:58:20.320Z,97626.23
2018-03-07T09:00:46.256Z,97624.90
2018-03-07T09:03:12.195Z,97621.54
2018-03-07T09:05:38.117Z,97621.57
2018-03-07T09:08:04.086Z,97623.95
2018-03-07T09:10:30.023Z,97618.62
2018-03-07T09:12:55.948Z,97621.50
2018-03-07T09:15:21.864Z,97623.17
2018-03-07T09:17:47.785Z,97626.86
2018-03-07T09:20:13.715Z,97625.70
2018-03-07T09:22:39.648Z,97629.39
2018-03-07T09:25:05.599Z,97631.82
2018-03-07T09:27:31.526Z,97633.12
2018-03-07T09:29:57.492Z,97640.97
2018-03-07T09:32:23.420Z,97639.77
2018-03-07T09:34:49.344Z,97637.22
2018-03-07T09:37:15.268Z,97643.17
2018-03-07T09:39:41.182Z,97644.27
2018-03-07T09:42:07.098Z,97644.27
2018-03-07T09:44:33.026Z,97647.11
2018-03-07T09:46:59.057Z,97645.69
2018-03-07T09:49:24.970Z,97646.55
2018-03-07T09:51:50.890Z,97646.58
2018-03-07T09:54:16.817Z,97651.61
2018-03-07T09:56:42.745Z,97642.52
2018-03-07T09:59:08.665Z,97649.08
2018-03-07T10:01:34.597Z,97650.30
2018-03-07T10:04:00.521Z,97648.18
2018-03-07T10:06:26.449Z,97649.36
2018-03-07T10:08:52.366Z,97649.01
2018-03-07T10:11:18.284Z,97654.00
2018-03-07T10:13:44.200Z,97648.57
2018-03-07T10:16:10.136Z,97654.38
2018-03-07T10:18:36.066Z,97652.41
2018-03-07T10:21:01.990Z,97657.30
2018-03-07T10:23:27.915Z,97655.39
2018-03-07T10:25:53.846Z,97654.17
2018-03-07T10:28:19.769Z,97657.66
2018-03-07T10:30:45.690Z,97655.69
2018-03-07T10:33:11.610Z,97654.68
2018-03-07T10:35:37.530Z,97658.98
2018-03-07T10:38:03.476Z,97657.36
2018-03-07T10:40:29.407Z,97652.95
2018-03-07T10:42:55.352Z,97653.42
2018-03-07T10:45:21.279Z,97655.41
2018-03-07T10:47:47.203Z,97654.78
2018-03-07T10:50:13.146Z,97656.71
2018-03-07T10:52:39.078Z,97657.69
2018-03-07T10:55:05.005Z,97661.81
2018-03-07T10:57:30.940Z,97665.92
2018-03-07T10:59:56.868Z,97667.31
2018-03-07T11:02:22.800Z,97674.61
2018-03-07T11:04:48.730Z,97662.25
2018-03-07T11:07:14.667Z,97666.23
2018-03-07T11:09:40.603Z,97670.41
2018-03-07T11:12:06.542Z,97665.72
2018-03-07T11:14:32.480Z,97675.50
2018-03-07T11:16:58.418Z,97674.57
2018-03-07T11:19:24.368Z,97671.69
2018-03-07T11:21:50.294Z,97669.48
2018-03-07T11:24:16.232Z,97672.93
2018-03-07T11:26:42.186Z,97669.60
2018-03-07T11:29:08.112Z,97670.83
2018-03-07T11:31:34.027Z,97673.38
2018-03-07T11:33:59.959Z,97670.20
2018-03-07T11:36:25.882Z,97677.20
2018-03-07T11:38:51.839Z,97671.09
2018-03-07T11:41:17.760Z,97674.88
2018-03-07T11:43:43.683Z,97682.95
2018-03-07T11:46:09.622Z,97678.76
2018-03-07T11:48:35.558Z,97680.22
2018-03-07T11:51:01.478Z,97679.22
2018-03-07T11:53:27.438Z,97686.89
2018-03-07T11:55:53.387Z,97689.98
2018-03-07T11:58:19.463Z,97690.38
2018-03-07T12:00:45.447Z,97696.48
2018-03-07T12:03:11.382Z,97690.92
2018-03-07T12:05:38.602Z,97689.59
2018-03-07T12:08:04.535Z,97691.77
2018-03-07T12:10:30.476Z,97689.08
2018-03-07T12:12:56.455Z,97682.81
2018-03-07T12:15:22.374Z,97695.27
2018-03-07T12:17:48.311Z,97685.97
2018-03-07T12:20:14.241Z,97705.26
2018-03-07T12:22:40.195Z,97701.37
2018-03-07T12:25:06.118Z,97702.55
2018-03-07T12:27:32.117Z,97692.92
2018-03-07T12:29:58.051Z,97696.34
2018-03-07T12:32:23.987Z,97701.56
2018-03-07T12:34:49.903Z,97700.25
2018-03-07T12:37:15.853Z,97704.46
2018-03-07T12:39:41.791Z,97700.10
2018-03-07T12:42:07.724Z,97700.39
2018-03-07T12:44:33.646Z,97695.03
2018-03-07T12:46:59.581Z,97697.55
2018-03-07T12:49:25.499Z,97696.80
2018-03-07T12:51:51.433Z,97705.08
2018-03-07T12:54:17.439Z,97706.13
2018-03-07T12:56:43.367Z,97706.95
2018-03-07T12:59:09.289Z,97709.75
2018-03-07T13:01:35.347Z,97703.92
2018-03-07T13:04:01.285Z,97709.12
2018-03-07T13:06:27.216Z,97710.19
2018-03-07T13:08:53.159Z,97715.63
2018-03-07T13:11:19.095Z,97721.73
2018-03-07T13:13:45.123Z,97714.53
2018-03-07T13:16:11.059Z,97722.48
2018-03-07T13:18:36.987Z,97718.53
2018-03-07T13:21:02.919Z,97725.14
2018-03-07T13:23:28.853Z,97719.95
2018-03-07T13:25:54.778Z,97726.91
2018-03-07T13:28:20.717Z,97736.00
2018-03-07T13:30:46.650Z,97735.13
2018-03-07T13:33:12.585Z,97732.47
2018-03-07T13:35:38.515Z,97741.19
2018-03-07T13:38:04.439Z,97738.69
2018-03-07T13:40:30.355Z,97735.67
2018-03-07T13:42:56.387Z,97737.71
2018-03-07T13:45:22.326Z,97743.52
2018-03-07T13:47:48.255Z,97743.01
2018-03-07T13:50:14.189Z,97747.58
2018-03-07T13:52:40.215Z,97749.68
2018-03-07T13:55:06.147Z,97756.69
2018-03-07T13:57:32.090Z,97756.64
2018-03-07T13:59:58.023Z,97760.20
2018-03-07T14:02:23.955Z,97758.13
2018-03-07T14:04:49.883Z,97761.81
2018-03-07T14:07:15.823Z,97765.59
2018-03-07T14:09:41.763Z,97760.87
2018-03-07T14:12:07.703Z,97768.84
2018-03-07T14:14:33.655Z,97770.56
2018-03-07T14:16:59.605Z,97774.33
2018-03-07T14:19:25.544Z,97768.13
2018-03-07T14:21:51.499Z,97772.98
2018-03-07T14:24:17.424Z,97776.77
2018-03-07T14:26:43.375Z,97780.01
2018-03-07T14:29:09.295Z,97786.21
2018-03-07T14:31:35.255Z,97786.53
2018-03-07T14:34:01.179Z,97788.47
2018-03-07T14:36:27.134Z,97795.55
2018-03-07T14:38:53.063Z,97790.17
2018-03-07T14:41:19.047Z,97786.92
2018-03-07T14:43:45.021Z,97777.48
2018-03-07T14:46:10.973Z,97794.66
2018-03-07T14:48:36.913Z,97802.45
2018-03-07T14:51:02.859Z,97800.31
2018-03-07T14:53:28.805Z,97801.98
2018-03-07T14:55:54.765Z,97791.84
2018-03-07T14:58:20.687Z,97793.41
2018-03-07T15:00:46.610Z,97789.19
2018-03-07T15:03:12.530Z,97791.25
2018-03-07T15:05:38.449Z,97798.77
2018-03-07T15:08:04.370Z,97788.74
2018-03-07T15:10:30.397Z,97795.83
2018-03-07T15:12:56.323Z,97797.84
2018-03-07T15:15:22.257Z,97799.81
2018-03-07T15:17:48.191Z,97803.20
2018-03-07T15:20:14.136Z,97798.40
2018-03-07T15:22:40.056Z,97808.22
2018-03-07T15:25:05.984Z,97812.48
2018-03-07T15:27:31.907Z,97817.12
2018-03-07T15:29:57.826Z,97812.52
2018-03-07T15:32:23.770Z,97810.42
2018-03-07T15:34:49.687Z,97810.03
2018-03-07T15:37:15.623Z,97818.68
2018-03-07T15:39:41.550Z,97816.56
2018-03-07T15:42:07.481Z,97822.76
2018-03-07T15:44:33.406Z,97816.90
2018-03-07T15:46:59.342Z,97821.70
2018-03-07T15:49:25.269Z,97821.23
2018-03-07T15:51:51.289Z,97824.48
2018-03-07T15:54:17.289Z,97831.22
2018-03-07T15:56:43.241Z,97827.45
2018-03-07T15:59:09.163Z,97834.17
2018-03-07T16:01:35.101Z,97830.41
2018-03-07T16:04:01.020Z,97825.80
2018-03-07T16:06:26.956Z,97830.02
2018-03-07T16:08:52.897Z,97829.93
2018-03-07T16:11:18.832Z,97837.52
2018-03-07T16:13:44.750Z,97836.32
2018-03-07T16:16:10.674Z,97838.41
2018-03-07T16:18:36.593Z,97836.30
2018-03-07T16:21:02.577Z,97837.16
2018-03-07T16:23:28.489Z,97842.67
2018-03-07T16:25:54.414Z,97843.44
2018-03-07T16:28:20.337Z,97837.66
2018-03-07T16:30:46.330Z,97853.06
2018-03-07T16:33:13.362Z,97858.56
2018-03-07T16:35:39.326Z,97855.58
2018-03-07T16:38:05.245Z,97856.98
2018-03-07T16:40:31.178Z,97854.40
2018-03-07T16:42:57.100Z,97854.92
2018-03-07T16:45:23.026Z,97857.25
2018-03-07T16:47:48.970Z,97865.59
2018-03-07T16:50:14.894Z,97862.63
2018-03-07T16:52:40.930Z,97861.02
2018-03-07T16:55:06.901Z,97855.66
2018-03-07T16:57:33.941Z,97857.35
2018-03-07T16:59:59.901Z,97855.26
2018-03-07T17:02:25.842Z,97835.41
2018-03-07T17:04:51.776Z,97872.00
2018-03-07T17:07:17.718Z,97870.62
2018-03-07T17:09:43.676Z,97876.00
2018-03-07T17:12:09.792Z,97886.52
2018-03-07T17:14:35.735Z,97884.88
2018-03-07T17:17:01.678Z,97881.55
2018-03-07T17:19:27.631Z,97891.13
2018-03-07T17:21:53.583Z,97887.02
2018-03-07T17:24:19.517Z,97894.50
2018-03-07T17:26:45.446Z,97892.04
2018-03-07T17:29:11.387Z,97889.87
2018-03-07T17:31:37.320Z,97903.36
2018-03-07T17:34:03.253Z,97905.07
2018-03-07T17:36:29.268Z,97913.73
2018-03-07T17:38:55.197Z,97910.80
2018-03-07T17:41:21.221Z,97910.11
2018-03-07T17:43:47.139Z,97922.64
2018-03-07T17:46:13.061Z,97926.02
2018-03-07T17:48:38.982Z,97925.03
2018-03-07T17:51:04.907Z,97929.66
2018-03-07T17:53:30.931Z,97932.98
2018-03-07T17:55:56.872Z,97945.17
2018-03-07T17:58:22.867Z,97940.98
2018-03-07T18:00:48.783Z,97950.94
2018-03-07T18:03:14.719Z,97945.50
2018-03-07T18:05:40.659Z,97949.34
2018-03-07T18:08:06.579Z,97956.45
2018-03-07T18:10:32.624Z,97955.76
2018-03-07T18:12:58.541Z,97955.17
2018-03-07T18:15:24.475Z,97955.94
2018-03-07T18:17:50.403Z,97956.02
2018-03-07T18:20:16.339Z,97954.23
2018-03-07T18:22:42.273Z,97958.55
2018-03-07T18:25:08.222Z,97961.13
2018-03-07T18:27:34.155Z,97961.08
2018-03-07T18:30:00.105Z,97963.96
2018-03-07T18:32:26.053Z,97965.24
2018-03-07T18:34:51.982Z,97965.64
2018-03-07T18:37:18.039Z,97966.08
2018-03-07T18:39:43.985Z,97971.59
2018-03-07T18:42:09.909Z,97969.88
2018-03-07T18:44:35.851Z,97973.57
2018-03-07T18:47:01.777Z,97976.64
2018-03-07T18:49:27.752Z,97970.36
2018-03-07T18:51:53.661Z,97968.14
2018-03-07T18:54:19.595Z,97974.84
2018-03-07T18:56:45.543Z,97977.48
2018-03-07T18:59:11.482Z,97980.24
2018-03-07T19:01:37.411Z,97981.22
2018-03-07T19:04:03.381Z,97990.87
2018-03-07T19:06:29.311Z,97983.14
2018-03-07T19:08:55.253Z,97985.98
2018-03-07T19:11:21.202Z,97993.84
2018-03-07T19:13:47.132Z,97992.12
2018-03-07T19:16:13.067Z,97993.36
2018-03-07T19:18:39.005Z,97998.39
2018-03-07T19:21:04.956Z,98006.24
2018-03-07T19:23:30.907Z,98009.72
2018-03-07T19:25:56.839Z,98007.98
2018-03-07T19:28:22.765Z,98017.15
2018-03-07T19:30:48.736Z,98020.01
2018-03-07T19:33:14.793Z,98021.06
2018-03-07T19:35:40.721Z,98023.45
2018-03-07T19:38:06.664Z,98029.34
2018-03-07T19:40:32.594Z,98038.08
2018-03-07T19:42:58.532Z,98028.36
2018-03-07T19:45:24.493Z,98035.05
2018-03-07T19:47:50.427Z,98039.40
2018-03-07T19:50:16.367Z,98040.65
2018-03-07T19:52:42.329Z,98044.82
2018-03-07T19:55:08.255Z,98053.09
2018-03-07T19:57:34.227Z,98054.34
2018-03-07T20:00:00.183Z,98053.92
2018-03-07T20:02:26.137Z,98053.58
2018-03-07T20:04:53.582Z,98053.62
2018-03-07T20:07:23.163Z,98058.23
2018-03-07T20:09:49.183Z,98059.02
2018-03-07T20:12:15.146Z,98059.55
2018-03-07T20:14:41.106Z,98066.96
2018-03-07T20:17:08.305Z,98057.37
2018-03-07T20:19:34.254Z,98060.81
2018-03-07T20:22:00.196Z,98062.14
2018-03-07T20:24:26.136Z,98066.19
2018-03-07T20:26:52.089Z,98067.90
2018-03-07T20:29:18.054Z,98072.40
2018-03-07T20:31:43.988Z,98074.70
2018-03-07T20:34:11.750Z,98071.33
2018-03-07T20:36:37.914Z,98078.87
2018-03-07T20:39:03.834Z,98083.01
2018-03-07T20:41:29.784Z,98081.46
2018-03-07T20:43:55.719Z,98080.14
2018-03-07T20:46:21.681Z,98082.75
2018-03-07T20:48:47.615Z,98083.09
2018-03-07T20:51:13.613Z,98087.70
2018-03-07T20:53:39.641Z,98090.20
2018-03-07T20:56:05.591Z,98090.38
2018-03-07T20:58:31.557Z,98093.77
2018-03-07T21:06:36.954Z,98107.53
2018-03-07T21:09:02.895Z,98107.59
2018-03-07T21:11:28.888Z,98108.10
2018-03-07T21:13:54.828Z,98113.92
2018-03-07T21:16:20.780Z,98114.75
2018-03-07T21:18:46.760Z,98116.48
2018-03-07T21:21:12.718Z,98117.63
2018-03-07T21:23:38.736Z,98119.37
2018-03-07T21:26:04.707Z,98121.48
2018-03-07T21:28:30.641Z,98121.54
2018-03-07T21:30:56.593Z,98118.23
2018-03-07T21:33:22.543Z,98121.14
2018-03-07T21:35:48.482Z,98131.11
2018-03-07T21:38:14.437Z,98130.28
2018-03-07T21:40:40.442Z,98128.13
2018-03-07T21:43:06.365Z,98129.42
2018-03-07T21:45:32.342Z,98133.20
2018-03-07T21:47:58.289Z,98131.97
2018-03-07T21:50:25.268Z,98129.86
2018-03-07T21:52:51.186Z,98130.78
2018-03-07T21:55:17.129Z,98135.41
2018-03-07T21:57:43.058Z,98130.77
2018-03-07T22:00:09.002Z,98139.59
2018-03-07T22:02:34.936Z,98137.59
2018-03-07T22:05:00.886Z,98139.69
2018-03-07T22:07:26.810Z,98139.72
2018-03-07T22:09:52.766Z,98135.19
2018-03-07T22:12:18.740Z,98135.92
2018-03-07T22:14:44.678Z,98135.09
2018-03-07T22:17:10.611Z,98131.89
2018-03-07T22:19:36.534Z,98133.48
2018-03-07T22:22:02.454Z,98134.37
2018-03-07T22:24:28.374Z,98137.73
2018-03-07T22:26:54.318Z,98133.56
2018-03-07T22:29:20.251Z,98144.46
2018-03-07T22:31:46.175Z,98146.46
2018-03-07T22:34:12.096Z,98146.95
2018-03-07T22:36:38.030Z,98152.03
2018-03-07T22:39:03.970Z,98153.68
2018-03-07T22:41:29.906Z,98154.65
2018-03-07T22:43:55.842Z,98155.91
2018-03-07T22:46:21.788Z,98157.18
2018-03-07T22:48:47.714Z,98156.31
2018-03-07T22:51:13.650Z,98163.92
2018-03-07T22:53:39.598Z,98162.14
2018-03-07T22:56:05.534Z,98165.97
2018-03-07T22:58:31.524Z,98172.20
2018-03-07T23:00:57.442Z,98172.19
2018-03-07T23:03:23.357Z,98172.66
2018-03-07T23:05:49.290Z,98174.72
2018-03-07T23:08:15.214Z,98181.80
2018-03-07T23:10:41.146Z,98180.94
2018-03-07T23:13:07.074Z,98178.98
2018-03-07T23:15:33.010Z,98179.44
2018-03-07T23:17:58.932Z,98182.34
2018-03-07T23:20:24.878Z,98186.51
2018-03-07T23:22:50.820Z,98187.37
2018-03-07T23:25:16.759Z,98191.95
2018-03-07T23:27:42.683Z,98195.28
2018-03-07T23:30:08.616Z,98187.00
2018-03-07T23:32:34.553Z,98182.22
2018-03-07T23:35:00.502Z,98182.28
2018-03-07T23:37:26.445Z,98181.02
2018-03-07T23:39:52.397Z,98186.46
2018-03-07T23:42:18.331Z,98183.14
2018-03-07T23:44:44.258Z,98186.93
2018-03-07T23:47:10.203Z,98190.69
2018-03-07T23:49:36.118Z,98196.95
2018-03-07T23:52:02.047Z,98204.34
2018-03-07T23:54:27.985Z,98203.56
2018-03-07T23:56:53.914Z,98201.53
2018-03-07T23:59:19.865Z,98206.59
